RKSY/SSN METAR and TAF weather

Enter ICAO airport designator
Station Type Date Time Source
RKSY METAR 2019/07/17 12:58 UTC NOAA

RKSY 171258Z AUTO 00000KT 9999 FEW170 SCT220 26/21 A2983 RMK AO2 SLP104 T02620213 $


Station Type Date Time Source
RKSY Decoded METAR 2019/07/17 12:58 UTC NOAA

Yongsan / H-208 Hp, Korea, South (RKSY) 37-31N 126-59E
Jul 17, 2019 - 08:58 AM EDT / 2019.07.17 1258 UTC
Wind: Calm:0
Visibility: greater than 7 mile(s):0
Sky conditions: partly cloudy
Temperature: 79.2 F (26.2 C)
Dew Point: 70.3 F (21.3 C)
Relative Humidity: 74%
Pressure (altimeter): 29.83 in. Hg (1010 hPa)
ob: RKSY 171258Z AUTO 00000KT 9999 FEW170 SCT220 26/21 A2983 RMK AO2 SLP104 T02620213
cycle: 13

Station Type Date Time Source
RKSY TAF UTC NOAA

Error!

Example: see airport list